createdAt,value
2022-12-06T00:00:20.822Z,3.90
2022-12-06T00:01:20.791Z,3.92
2022-12-06T00:02:20.846Z,3.92
2022-12-06T00:03:20.816Z,3.92
2022-12-06T00:04:20.767Z,3.94
2022-12-06T00:05:20.773Z,3.96
2022-12-06T00:06:20.732Z,3.94
2022-12-06T00:07:20.736Z,3.94
2022-12-06T00:08:20.775Z,3.97
2022-12-06T00:09:20.701Z,3.97
2022-12-06T00:10:20.733Z,3.97
2022-12-06T00:11:20.672Z,3.97
2022-12-06T00:12:20.675Z,3.97
2022-12-06T00:13:20.660Z,3.96
2022-12-06T00:14:20.661Z,3.96
2022-12-06T00:15:20.653Z,3.94
2022-12-06T00:16:20.706Z,3.94
2022-12-06T00:17:20.608Z,3.94
2022-12-06T00:18:20.624Z,3.96
2022-12-06T00:19:20.591Z,3.96
2022-12-06T00:20:20.595Z,3.97
2022-12-06T00:21:20.591Z,3.98
2022-12-06T00:22:20.563Z,3.98
2022-12-06T00:23:20.556Z,4.00
2022-12-06T00:24:20.612Z,4.00
2022-12-06T00:25:20.567Z,4.00
2022-12-06T00:26:20.519Z,4.00
2022-12-06T00:27:20.519Z,4.00
2022-12-06T00:28:20.516Z,4.00
2022-12-06T00:29:20.497Z,4.00
2022-12-06T00:30:20.484Z,3.98
2022-12-06T00:31:20.554Z,4.01
2022-12-06T00:32:20.590Z,4.01
2022-12-06T00:33:20.449Z,4.01
2022-12-06T00:34:20.431Z,4.01
2022-12-06T00:35:20.438Z,4.00
2022-12-06T00:36:20.404Z,4.01
2022-12-06T00:37:20.396Z,4.01
2022-12-06T00:38:20.415Z,4.03
2022-12-06T00:39:20.372Z,4.03
2022-12-06T00:40:20.376Z,4.04
2022-12-06T00:41:20.371Z,4.04
2022-12-06T00:42:20.334Z,4.04
2022-12-06T00:43:20.332Z,4.06
2022-12-06T00:44:20.322Z,4.06
2022-12-06T00:45:20.325Z,4.06
2022-12-06T00:46:20.386Z,4.06
2022-12-06T00:47:20.283Z,4.06
2022-12-06T00:48:20.285Z,4.06
2022-12-06T00:49:20.281Z,4.07
2022-12-06T00:50:20.258Z,4.08
2022-12-06T00:51:20.274Z,4.07
2022-12-06T00:52:20.250Z,4.07
2022-12-06T00:53:20.219Z,4.08
2022-12-06T00:54:20.231Z,4.07
2022-12-06T00:55:20.196Z,4.08
2022-12-06T00:56:20.209Z,4.07
2022-12-06T00:57:20.181Z,4.08
2022-12-06T00:58:20.180Z,4.10
2022-12-06T00:59:20.180Z,4.08
2022-12-06T01:00:20.145Z,4.12
2022-12-06T01:01:20.246Z,4.08
2022-12-06T01:02:20.131Z,4.10
2022-12-06T01:03:20.210Z,4.08
2022-12-06T01:04:20.123Z,4.08
2022-12-06T01:05:20.107Z,4.10
2022-12-06T01:06:20.102Z,4.10
2022-12-06T01:07:20.096Z,4.12
2022-12-06T01:08:20.142Z,4.12
2022-12-06T01:09:20.047Z,4.12
2022-12-06T01:10:20.051Z,4.15
2022-12-06T01:11:20.046Z,4.15
2022-12-06T01:12:20.017Z,4.12
2022-12-06T01:13:20.018Z,4.15
2022-12-06T01:14:19.998Z,4.14
2022-12-06T01:15:19.987Z,4.14
2022-12-06T01:16:20.062Z,4.14
2022-12-06T01:17:19.992Z,4.14
2022-12-06T01:18:19.950Z,4.15
2022-12-06T01:19:19.963Z,4.15
2022-12-06T01:20:19.923Z,4.15
2022-12-06T01:21:19.933Z,4.15
2022-12-06T01:22:19.925Z,4.16
2022-12-06T01:23:19.894Z,4.16
2022-12-06T01:24:19.890Z,4.16
2022-12-06T01:25:19.872Z,4.16
2022-12-06T01:26:19.901Z,4.18
2022-12-06T01:27:19.866Z,4.16
2022-12-06T01:28:19.840Z,4.16
2022-12-06T01:29:19.848Z,4.16
2022-12-06T01:30:19.830Z,4.16
2022-12-06T01:31:19.966Z,4.18
2022-12-06T01:32:19.803Z,4.19
2022-12-06T01:33:19.800Z,4.16
2022-12-06T01:34:19.774Z,4.18
2022-12-06T01:35:19.774Z,4.16
2022-12-06T01:36:19.785Z,4.18
2022-12-06T01:37:19.754Z,4.16
2022-12-06T01:38:19.745Z,4.18
2022-12-06T01:39:19.725Z,4.19
2022-12-06T01:40:19.720Z,4.18
2022-12-06T01:41:19.727Z,4.18
2022-12-06T01:42:19.689Z,4.16
2022-12-06T01:43:19.697Z,4.16
2022-12-06T01:44:21.359Z,4.15
2022-12-06T01:45:19.669Z,4.18
2022-12-06T01:46:19.731Z,4.18
2022-12-06T01:47:19.649Z,4.21
2022-12-06T01:48:19.620Z,4.19
2022-12-06T01:49:19.614Z,4.21
2022-12-06T01:50:19.605Z,4.21
2022-12-06T01:51:19.616Z,4.22
2022-12-06T01:52:19.578Z,4.24
2022-12-06T01:53:25.303Z,4.24
2022-12-06T01:54:19.568Z,4.24
2022-12-06T01:55:19.556Z,4.24
2022-12-06T01:56:19.575Z,4.22
2022-12-06T01:57:19.531Z,4.19
2022-12-06T01:58:19.520Z,4.19
2022-12-06T01:59:19.504Z,4.19
2022-12-06T02:00:19.499Z,4.19
2022-12-06T02:01:19.615Z,4.19
2022-12-06T02:02:26.056Z,4.18
2022-12-06T02:03:19.461Z,4.21
2022-12-06T02:04:19.458Z,4.21
2022-12-06T02:05:19.438Z,4.22
2022-12-06T02:06:19.442Z,4.24
2022-12-06T02:07:19.432Z,4.24
2022-12-06T02:08:19.533Z,4.24
2022-12-06T02:09:19.405Z,4.25
2022-12-06T02:10:19.397Z,4.25
2022-12-06T02:11:19.383Z,4.25
2022-12-06T02:12:19.378Z,4.26
2022-12-06T02:13:19.361Z,4.26
2022-12-06T02:14:19.348Z,4.26
2022-12-06T02:15:19.362Z,4.26
2022-12-06T02:16:19.362Z,4.26
2022-12-06T02:17:19.328Z,4.28
2022-12-06T02:18:19.306Z,4.26
2022-12-06T02:19:19.304Z,4.28
2022-12-06T02:20:19.285Z,4.28
2022-12-06T02:21:19.285Z,4.29
2022-12-06T02:22:19.264Z,4.32
2022-12-06T02:23:19.251Z,4.32
2022-12-06T02:24:19.234Z,4.29
2022-12-06T02:25:19.229Z,4.33
2022-12-06T02:26:19.253Z,4.34
2022-12-06T02:27:19.204Z,4.36
2022-12-06T02:28:19.196Z,4.37
2022-12-06T02:29:19.200Z,4.42
2022-12-06T02:30:19.174Z,4.44
2022-12-06T02:31:19.204Z,4.46
2022-12-06T02:32:19.155Z,4.50
2022-12-06T02:33:19.160Z,4.54
2022-12-06T02:34:19.143Z,4.57
2022-12-06T02:35:19.118Z,4.59
2022-12-06T02:36:19.150Z,4.64
2022-12-06T02:37:19.109Z,4.67
2022-12-06T02:38:19.092Z,4.70
2022-12-06T02:39:19.077Z,4.72
2022-12-06T02:40:19.059Z,4.76
2022-12-06T02:41:19.077Z,4.79
2022-12-06T02:42:19.047Z,4.83
2022-12-06T02:43:19.045Z,4.84
2022-12-06T02:44:19.021Z,4.88
2022-12-06T02:45:19.019Z,4.89
2022-12-06T02:46:19.067Z,4.92
2022-12-06T02:47:19.023Z,4.92
2022-12-06T02:48:19.013Z,4.94
2022-12-06T02:49:18.992Z,4.95
2022-12-06T02:50:18.955Z,4.95
2022-12-06T02:51:18.960Z,4.96
2022-12-06T02:52:18.933Z,4.98
2022-12-06T02:53:18.949Z,4.99
2022-12-06T02:54:18.915Z,5.01
2022-12-06T02:55:18.922Z,5.01
2022-12-06T02:56:18.904Z,5.01
2022-12-06T02:57:18.873Z,5.02
2022-12-06T02:58:18.865Z,5.04
2022-12-06T02:59:18.866Z,5.05
2022-12-06T03:00:18.844Z,5.05
2022-12-06T03:01:18.924Z,5.05
2022-12-06T03:02:18.889Z,5.07
2022-12-06T03:03:18.814Z,5.05
2022-12-06T03:04:18.807Z,5.07
2022-12-06T03:05:18.787Z,5.09
2022-12-06T03:06:18.808Z,5.07
2022-12-06T03:07:18.782Z,5.09
2022-12-06T03:08:18.783Z,5.09
2022-12-06T03:09:18.757Z,5.10
2022-12-06T03:10:18.759Z,5.09
2022-12-06T03:11:18.743Z,5.09
2022-12-06T03:12:18.721Z,5.10
2022-12-06T03:13:18.714Z,5.10
2022-12-06T03:14:18.694Z,5.12
2022-12-06T03:15:18.685Z,5.09
2022-12-06T03:16:18.722Z,5.12
2022-12-06T03:17:18.705Z,5.10
2022-12-06T03:18:18.652Z,5.12
2022-12-06T03:19:18.639Z,5.12
2022-12-06T03:20:18.626Z,5.12
2022-12-06T03:21:18.644Z,5.13
2022-12-06T03:22:18.609Z,5.12
2022-12-06T03:23:18.602Z,5.13
2022-12-06T03:24:18.616Z,5.12
2022-12-06T03:25:18.581Z,5.12
2022-12-06T03:26:18.600Z,5.13
2022-12-06T03:27:18.557Z,5.13
2022-12-06T03:28:18.603Z,5.13
2022-12-06T03:29:18.535Z,5.13
2022-12-06T03:30:18.537Z,5.12
2022-12-06T03:31:18.565Z,5.14
2022-12-06T03:32:18.530Z,5.13
2022-12-06T03:33:18.511Z,5.16
2022-12-06T03:34:18.478Z,5.14
2022-12-06T03:35:18.503Z,5.14
2022-12-06T03:36:18.455Z,5.16
2022-12-06T03:37:18.468Z,5.14
2022-12-06T03:38:18.473Z,5.16
2022-12-06T03:39:18.423Z,5.13
2022-12-06T03:40:18.419Z,5.14
2022-12-06T03:41:18.407Z,5.14
2022-12-06T03:42:18.432Z,5.14
2022-12-06T03:43:18.382Z,5.14
2022-12-06T03:44:18.376Z,5.14
2022-12-06T03:45:18.390Z,5.17
2022-12-06T03:46:18.492Z,5.16
2022-12-06T03:47:18.420Z,5.16
2022-12-06T03:48:18.350Z,5.16
2022-12-06T03:49:18.316Z,5.17
2022-12-06T03:50:18.307Z,5.17
2022-12-06T03:51:18.285Z,5.17
2022-12-06T03:52:18.328Z,5.17
2022-12-06T03:53:18.271Z,5.16
2022-12-06T03:54:18.259Z,5.16
2022-12-06T03:55:18.253Z,5.17
2022-12-06T03:56:18.234Z,5.17
2022-12-06T03:57:18.269Z,5.17
2022-12-06T03:58:18.217Z,5.16
2022-12-06T03:59:18.211Z,5.16
2022-12-06T04:00:18.194Z,5.17
2022-12-06T04:01:18.246Z,5.17
2022-12-06T04:02:18.253Z,5.16
2022-12-06T04:03:18.272Z,5.17
2022-12-06T04:04:18.266Z,5.19
2022-12-06T04:05:18.194Z,5.16
2022-12-06T04:06:18.139Z,5.17
2022-12-06T04:07:18.128Z,5.17
2022-12-06T04:08:18.178Z,5.16
2022-12-06T04:09:18.101Z,5.19
2022-12-06T04:10:18.084Z,5.17
2022-12-06T04:11:18.078Z,5.19
2022-12-06T04:12:18.104Z,5.19
2022-12-06T04:13:19.758Z,5.17
2022-12-06T04:14:18.045Z,5.19
2022-12-06T04:15:18.044Z,5.17
2022-12-06T04:16:18.102Z,5.17
2022-12-06T04:17:18.053Z,5.19
2022-12-06T04:18:18.002Z,5.17
2022-12-06T04:19:17.986Z,5.17
2022-12-06T04:20:17.977Z,5.17
2022-12-06T04:21:17.972Z,5.19
2022-12-06T04:22:17.999Z,5.19
2022-12-06T04:23:17.948Z,5.17
2022-12-06T04:24:17.942Z,5.16
2022-12-06T04:25:17.935Z,5.17
2022-12-06T04:26:17.908Z,5.19
2022-12-06T04:27:17.922Z,5.17
2022-12-06T04:28:17.907Z,5.17
2022-12-06T04:29:17.883Z,5.17
2022-12-06T04:30:17.871Z,5.19
2022-12-06T04:31:21.955Z,5.17
2022-12-06T04:32:17.862Z,5.17
2022-12-06T04:33:17.874Z,5.17
2022-12-06T04:34:17.830Z,5.17
2022-12-06T04:35:17.837Z,5.19
2022-12-06T04:36:17.813Z,5.19
2022-12-06T04:37:17.817Z,5.19
2022-12-06T04:38:17.779Z,5.19
2022-12-06T04:39:20.996Z,5.17
2022-12-06T04:40:17.759Z,5.19
2022-12-06T04:41:17.769Z,5.20
2022-12-06T04:42:17.754Z,5.19
2022-12-06T04:43:17.755Z,5.19
2022-12-06T04:44:17.712Z,5.20
2022-12-06T04:45:17.708Z,5.19
2022-12-06T04:46:17.807Z,5.17
2022-12-06T04:47:17.707Z,5.19
2022-12-06T04:48:17.712Z,5.19
2022-12-06T04:49:17.663Z,5.17
2022-12-06T04:50:17.673Z,5.17
2022-12-06T04:51:17.640Z,5.19
2022-12-06T04:52:17.649Z,5.19
2022-12-06T04:53:17.620Z,5.20
2022-12-06T04:54:17.613Z,5.19
2022-12-06T04:55:17.591Z,5.17
2022-12-06T04:56:17.610Z,5.20
2022-12-06T04:57:17.594Z,5.20
2022-12-06T04:58:17.590Z,5.19
2022-12-06T04:59:18.052Z,5.20
2022-12-06T05:00:17.553Z,5.19
2022-12-06T05:01:17.597Z,5.20
2022-12-06T05:02:17.531Z,5.19
2022-12-06T05:03:17.527Z,5.17
2022-12-06T05:04:17.551Z,5.19
2022-12-06T05:05:17.487Z,5.17
2022-12-06T05:06:17.480Z,5.17
2022-12-06T05:07:17.503Z,5.17
2022-12-06T05:08:17.514Z,5.17
2022-12-06T05:09:17.452Z,5.19
2022-12-06T05:10:17.450Z,5.17
2022-12-06T05:11:17.429Z,5.16
2022-12-06T05:12:17.437Z,5.17
2022-12-06T05:13:17.408Z,5.17
2022-12-06T05:14:17.400Z,5.17
2022-12-06T05:15:17.457Z,5.17
2022-12-06T05:16:17.400Z,5.17
2022-12-06T05:17:17.394Z,5.17
2022-12-06T05:18:17.376Z,5.17
2022-12-06T05:19:17.341Z,5.17
2022-12-06T05:20:17.327Z,5.16
2022-12-06T05:21:17.358Z,5.16
2022-12-06T05:22:17.339Z,5.16
2022-12-06T05:23:17.318Z,5.16
2022-12-06T05:24:17.302Z,5.17
2022-12-06T05:25:17.280Z,5.16
2022-12-06T05:26:17.267Z,5.16
2022-12-06T05:27:17.278Z,5.16
2022-12-06T05:28:17.269Z,5.17
2022-12-06T05:29:17.233Z,5.17
2022-12-06T05:30:17.233Z,5.17
2022-12-06T05:31:17.282Z,5.17
2022-12-06T05:32:17.218Z,5.17
2022-12-06T05:33:17.189Z,5.17
2022-12-06T05:34:17.172Z,5.17
2022-12-06T05:35:17.203Z,5.17
2022-12-06T05:36:17.153Z,5.17
2022-12-06T05:37:17.153Z,5.17
2022-12-06T05:38:17.144Z,5.17
2022-12-06T05:39:17.122Z,5.17
2022-12-06T05:40:17.108Z,5.17
2022-12-06T05:41:17.123Z,5.17
2022-12-06T05:42:22.598Z,5.17
2022-12-06T05:43:17.095Z,5.17
2022-12-06T05:44:17.060Z,5.17
2022-12-06T05:45:17.049Z,5.17
2022-12-06T05:46:17.138Z,5.17
2022-12-06T05:47:17.058Z,5.17
2022-12-06T05:48:17.031Z,5.16
2022-12-06T05:49:17.009Z,5.17
2022-12-06T05:50:17.000Z,5.17
2022-12-06T05:51:16.988Z,5.17
2022-12-06T05:52:17.005Z,5.17
2022-12-06T05:53:16.988Z,5.17
2022-12-06T05:54:16.965Z,5.19
2022-12-06T05:55:16.983Z,5.17
2022-12-06T05:56:16.940Z,5.19
2022-12-06T05:57:16.946Z,5.17
2022-12-06T05:58:16.909Z,5.16
2022-12-06T05:59:16.901Z,5.16
2022-12-06T06:00:16.896Z,5.16
2022-12-06T06:01:16.904Z,5.17
2022-12-06T06:02:17.107Z,5.16
2022-12-06T06:03:17.023Z,5.17
2022-12-06T06:04:16.872Z,5.16
2022-12-06T06:05:16.848Z,5.14
2022-12-06T06:06:16.826Z,5.16
2022-12-06T06:07:16.854Z,5.13
2022-12-06T06:08:16.889Z,5.14
2022-12-06T06:09:16.818Z,5.13
2022-12-06T06:10:16.838Z,5.12
2022-12-06T06:11:16.783Z,5.13
2022-12-06T06:12:16.804Z,5.12
2022-12-06T06:13:16.779Z,5.12
2022-12-06T06:14:16.740Z,5.12
2022-12-06T06:15:16.734Z,5.10
2022-12-06T06:16:16.762Z,5.10
2022-12-06T06:17:16.729Z,5.07
2022-12-06T06:18:16.700Z,5.07
2022-12-06T06:19:16.686Z,5.07
2022-12-06T06:20:16.674Z,5.09
2022-12-06T06:21:16.676Z,5.09
2022-12-06T06:22:16.656Z,5.07
2022-12-06T06:23:17.992Z,5.07
2022-12-06T06:24:16.656Z,5.07
2022-12-06T06:25:16.620Z,5.07
2022-12-06T06:26:16.612Z,5.04
2022-12-06T06:27:16.595Z,5.05
2022-12-06T06:28:16.604Z,5.07
2022-12-06T06:29:16.613Z,5.07
2022-12-06T06:30:16.574Z,5.05
2022-12-06T06:31:16.599Z,5.04
2022-12-06T06:32:16.667Z,5.04
2022-12-06T06:33:16.549Z,5.01
2022-12-06T06:34:16.540Z,4.99
2022-12-06T06:35:16.519Z,5.01
2022-12-06T06:36:16.506Z,5.02
2022-12-06T06:37:16.514Z,5.01
2022-12-06T06:38:16.494Z,4.99
2022-12-06T06:39:16.467Z,4.99
2022-12-06T06:40:16.466Z,4.99
2022-12-06T06:41:16.451Z,4.99
2022-12-06T06:42:16.436Z,5.01
2022-12-06T06:43:16.446Z,4.99
2022-12-06T06:44:16.426Z,4.98
2022-12-06T06:45:16.400Z,4.99
2022-12-06T06:46:16.434Z,4.99
2022-12-06T06:47:16.392Z,4.99
2022-12-06T06:48:16.382Z,4.99
2022-12-06T06:49:16.385Z,4.99
2022-12-06T06:50:16.350Z,4.99
2022-12-06T06:51:16.336Z,5.01
2022-12-06T06:52:16.326Z,4.99
2022-12-06T06:53:16.336Z,4.98
2022-12-06T06:54:16.308Z,4.98
2022-12-06T06:55:16.302Z,4.99
2022-12-06T06:56:16.283Z,4.98
2022-12-06T06:57:18.074Z,4.98
2022-12-06T06:58:16.296Z,4.99
2022-12-06T06:59:16.251Z,4.98
2022-12-06T07:00:16.255Z,4.96
2022-12-06T07:01:16.325Z,4.96
2022-12-06T07:02:16.372Z,4.98
2022-12-06T07:03:16.234Z,4.98
2022-12-06T07:04:16.210Z,4.98
2022-12-06T07:05:16.187Z,4.98
2022-12-06T07:06:16.175Z,4.96
2022-12-06T07:07:21.056Z,4.96
2022-12-06T07:08:16.290Z,4.95
2022-12-06T07:09:16.147Z,4.96
2022-12-06T07:10:16.208Z,4.96
2022-12-06T07:11:16.132Z,4.95
2022-12-06T07:12:16.161Z,4.95
2022-12-06T07:13:16.155Z,4.96
2022-12-06T07:14:16.095Z,4.96
2022-12-06T07:15:16.101Z,4.96
2022-12-06T07:16:16.123Z,4.96
2022-12-06T07:17:16.168Z,4.98
2022-12-06T07:18:16.076Z,4.98
2022-12-06T07:19:16.041Z,4.98
2022-12-06T07:20:16.048Z,4.96
2022-12-06T07:21:16.036Z,4.98
2022-12-06T07:22:16.000Z,4.98
2022-12-06T07:23:16.007Z,4.98
2022-12-06T07:24:16.020Z,4.96
2022-12-06T07:25:15.996Z,4.98
2022-12-06T07:26:15.983Z,4.96
2022-12-06T07:27:15.975Z,4.95
2022-12-06T07:28:15.966Z,4.95
2022-12-06T07:29:15.962Z,4.94
2022-12-06T07:30:17.719Z,4.95
2022-12-06T07:31:16.056Z,4.94
2022-12-06T07:32:15.882Z,4.94
2022-12-06T07:33:15.913Z,4.95
2022-12-06T07:34:15.887Z,4.95
2022-12-06T07:35:15.900Z,4.94
2022-12-06T07:36:15.860Z,4.94
2022-12-06T07:37:15.855Z,4.95
2022-12-06T07:38:15.868Z,4.94
2022-12-06T07:39:15.819Z,4.96
2022-12-06T07:40:15.821Z,4.95
2022-12-06T07:41:15.805Z,4.94
2022-12-06T07:42:15.783Z,4.95
2022-12-06T07:43:15.794Z,4.92
2022-12-06T07:44:15.786Z,4.95
2022-12-06T07:45:15.753Z,4.96
2022-12-06T07:46:15.838Z,4.95
2022-12-06T07:47:15.736Z,4.95
2022-12-06T07:48:15.731Z,4.95
2022-12-06T07:49:15.718Z,4.95
2022-12-06T07:50:18.160Z,4.95
2022-12-06T07:51:15.691Z,4.95
2022-12-06T07:52:15.676Z,4.94
2022-12-06T07:53:15.681Z,4.92
2022-12-06T07:54:15.679Z,4.94
2022-12-06T07:55:15.649Z,4.92
2022-12-06T07:56:15.638Z,4.92
2022-12-06T07:57:15.619Z,4.89
2022-12-06T07:58:15.648Z,4.89
2022-12-06T07:59:15.599Z,4.89
2022-12-06T08:00:15.601Z,4.89
2022-12-06T08:01:15.604Z,4.89
2022-12-06T08:02:15.562Z,4.91
2022-12-06T08:03:23.219Z,4.89
2022-12-06T08:04:15.591Z,4.92
2022-12-06T08:05:15.532Z,4.92
2022-12-06T08:06:15.520Z,4.92
2022-12-06T08:07:15.513Z,4.92
2022-12-06T08:08:15.583Z,4.92
2022-12-06T08:09:15.500Z,4.92
2022-12-06T08:10:15.498Z,4.92
2022-12-06T08:11:15.471Z,4.91
2022-12-06T08:12:15.469Z,4.91
2022-12-06T08:13:15.477Z,4.91
2022-12-06T08:14:15.429Z,4.91
2022-12-06T08:15:15.424Z,4.91
2022-12-06T08:16:15.481Z,4.89
2022-12-06T08:17:15.408Z,4.89
2022-12-06T08:18:15.415Z,4.89
2022-12-06T08:19:15.421Z,4.91
2022-12-06T08:20:15.379Z,4.91
2022-12-06T08:21:15.378Z,4.91
2022-12-06T08:22:15.358Z,4.92
2022-12-06T08:23:15.357Z,4.94
2022-12-06T08:24:15.360Z,4.94
2022-12-06T08:25:15.326Z,4.92
2022-12-06T08:26:15.313Z,4.91
2022-12-06T08:27:15.316Z,4.92
2022-12-06T08:28:15.301Z,4.92
2022-12-06T08:29:15.305Z,4.91
2022-12-06T08:30:15.277Z,4.92
2022-12-06T08:31:15.344Z,4.92
2022-12-06T08:32:15.242Z,4.94
2022-12-06T08:33:15.263Z,4.94
2022-12-06T08:34:15.224Z,4.95
2022-12-06T08:35:15.213Z,4.96
2022-12-06T08:36:15.234Z,4.96
2022-12-06T08:37:15.185Z,4.94
2022-12-06T08:38:15.193Z,4.94
2022-12-06T08:39:15.167Z,4.94
2022-12-06T08:40:15.157Z,4.91
2022-12-06T08:41:15.153Z,4.91
2022-12-06T08:42:15.136Z,4.92
2022-12-06T08:43:15.134Z,4.91
2022-12-06T08:44:15.134Z,4.91
2022-12-06T08:45:15.110Z,4.94
2022-12-06T08:46:15.132Z,4.95
2022-12-06T08:47:15.126Z,4.95
2022-12-06T08:48:15.083Z,4.95
2022-12-06T08:49:15.057Z,4.94
2022-12-06T08:50:15.067Z,4.96
2022-12-06T08:51:15.036Z,4.96
2022-12-06T08:52:15.029Z,4.96
2022-12-06T08:53:15.034Z,4.98
2022-12-06T08:54:15.020Z,4.98
2022-12-06T08:55:15.001Z,4.96
2022-12-06T08:56:15.005Z,4.98
2022-12-06T08:57:14.979Z,4.98
2022-12-06T08:58:14.982Z,4.98
2022-12-06T08:59:14.959Z,4.98
2022-12-06T09:00:14.954Z,4.98
2022-12-06T09:01:15.079Z,4.96
2022-12-06T09:02:14.966Z,4.98
2022-12-06T09:03:14.917Z,4.98
2022-12-06T09:04:14.947Z,4.98
2022-12-06T09:05:14.888Z,4.98
2022-12-06T09:06:14.864Z,4.98
2022-12-06T09:07:14.868Z,4.98
2022-12-06T09:08:14.961Z,4.99
2022-12-06T09:09:14.847Z,4.98
2022-12-06T09:10:14.839Z,4.98
2022-12-06T09:11:14.816Z,4.99
2022-12-06T09:12:14.813Z,4.99
2022-12-06T09:13:14.810Z,4.98
2022-12-06T09:14:21.088Z,4.98
2022-12-06T09:15:14.798Z,4.99
2022-12-06T09:16:14.798Z,5.01
2022-12-06T09:17:14.751Z,5.01
2022-12-06T09:18:14.757Z,4.99
2022-12-06T09:19:14.783Z,4.99
2022-12-06T09:20:14.764Z,4.98
2022-12-06T09:21:14.714Z,4.98
2022-12-06T09:22:14.709Z,4.99
2022-12-06T09:23:14.715Z,4.98
2022-12-06T09:24:14.670Z,4.98
2022-12-06T09:25:14.672Z,4.99
2022-12-06T09:26:14.653Z,4.98
2022-12-06T09:27:14.652Z,5.01
2022-12-06T09:28:14.647Z,4.99
2022-12-06T09:29:14.617Z,4.99
2022-12-06T09:30:14.611Z,4.99
2022-12-06T09:31:14.657Z,4.98
2022-12-06T09:32:14.589Z,4.98
2022-12-06T09:33:14.600Z,4.96
2022-12-06T09:34:14.565Z,4.96
2022-12-06T09:35:15.947Z,4.98
2022-12-06T09:36:14.545Z,4.98
2022-12-06T09:37:14.544Z,4.96
2022-12-06T09:38:14.541Z,4.96
2022-12-06T09:39:14.514Z,4.99
2022-12-06T09:40:14.508Z,4.98
2022-12-06T09:41:14.494Z,4.98
2022-12-06T09:42:14.483Z,4.95
2022-12-06T09:43:14.499Z,4.94
2022-12-06T09:44:14.455Z,4.95
2022-12-06T09:45:14.457Z,4.92
2022-12-06T09:46:14.480Z,4.92
2022-12-06T09:47:14.429Z,4.94
2022-12-06T09:48:14.440Z,4.95
2022-12-06T09:49:14.408Z,4.95
2022-12-06T09:50:14.405Z,4.96
2022-12-06T09:51:14.384Z,4.95
2022-12-06T09:52:14.394Z,4.96
2022-12-06T09:53:14.359Z,4.95
2022-12-06T09:54:14.375Z,4.96
2022-12-06T09:55:14.338Z,4.96
2022-12-06T09:56:14.370Z,4.98
2022-12-06T09:57:14.321Z,4.96
2022-12-06T09:58:14.309Z,4.96
2022-12-06T09:59:14.333Z,4.98
2022-12-06T10:00:19.040Z,4.99
2022-12-06T10:01:14.299Z,4.96
2022-12-06T10:02:14.296Z,4.96
2022-12-06T10:03:14.306Z,4.95
2022-12-06T10:04:14.283Z,4.96
2022-12-06T10:05:14.225Z,4.95
2022-12-06T10:06:14.245Z,4.95
2022-12-06T10:07:14.214Z,4.94
2022-12-06T10:08:14.278Z,4.94
2022-12-06T10:09:14.250Z,4.94
2022-12-06T10:10:14.199Z,4.95
2022-12-06T10:11:14.179Z,4.95
2022-12-06T10:12:14.161Z,4.98
2022-12-06T10:13:14.146Z,4.98
2022-12-06T10:14:14.180Z,4.98
2022-12-06T10:15:14.124Z,4.98
2022-12-06T10:16:14.247Z,4.96
2022-12-06T10:17:14.111Z,4.98
2022-12-06T10:18:14.097Z,4.98
2022-12-06T10:19:14.092Z,4.96
2022-12-06T10:20:14.068Z,4.96
2022-12-06T10:21:14.077Z,4.95
2022-12-06T10:22:14.053Z,4.94
2022-12-06T10:23:14.075Z,4.95
2022-12-06T10:24:14.052Z,4.95
2022-12-06T10:25:14.017Z,4.94
2022-12-06T10:26:14.015Z,4.94
2022-12-06T10:27:13.994Z,4.94
2022-12-06T10:28:14.001Z,4.96
2022-12-06T10:29:13.986Z,4.94
2022-12-06T10:30:13.983Z,4.96
2022-12-06T10:31:13.993Z,4.96
2022-12-06T10:32:13.941Z,4.98
2022-12-06T10:33:13.931Z,4.98
2022-12-06T10:34:13.960Z,4.99
2022-12-06T10:35:13.909Z,4.98
2022-12-06T10:36:13.886Z,4.99
2022-12-06T10:37:13.895Z,5.01
2022-12-06T10:38:13.895Z,5.01
2022-12-06T10:39:13.887Z,5.01
2022-12-06T10:40:13.868Z,5.01
2022-12-06T10:41:13.840Z,5.02
2022-12-06T10:42:13.842Z,4.99
2022-12-06T10:43:13.851Z,5.01
2022-12-06T10:44:13.856Z,4.99
2022-12-06T10:45:13.792Z,4.99
2022-12-06T10:46:13.842Z,4.99
2022-12-06T10:47:13.814Z,4.99
2022-12-06T10:48:13.761Z,5.01
2022-12-06T10:49:13.786Z,5.02
2022-12-06T10:50:13.752Z,5.02
2022-12-06T10:51:13.728Z,5.02
2022-12-06T10:52:13.724Z,5.04
2022-12-06T10:53:13.721Z,5.02
2022-12-06T10:54:13.716Z,5.02
2022-12-06T10:55:13.688Z,5.02
2022-12-06T10:56:13.676Z,5.04
2022-12-06T10:57:13.679Z,5.05
2022-12-06T10:58:13.668Z,5.05
2022-12-06T10:59:13.662Z,5.09
2022-12-06T11:00:15.808Z,5.09
2022-12-06T11:01:13.697Z,5.09
2022-12-06T11:02:13.701Z,5.09
2022-12-06T11:03:13.606Z,5.09
2022-12-06T11:04:13.616Z,5.09
2022-12-06T11:05:13.583Z,5.09
2022-12-06T11:06:13.569Z,5.09
2022-12-06T11:07:13.570Z,5.09
2022-12-06T11:08:13.640Z,5.09
2022-12-06T11:09:13.588Z,5.09
2022-12-06T11:10:13.525Z,5.07
2022-12-06T11:11:13.537Z,5.09
2022-12-06T11:12:13.532Z,5.09
2022-12-06T11:13:13.487Z,5.10
2022-12-06T11:14:13.499Z,5.10
2022-12-06T11:15:13.493Z,5.10
2022-12-06T11:16:13.497Z,5.10
2022-12-06T11:17:13.451Z,5.10
2022-12-06T11:18:13.452Z,5.10
2022-12-06T11:19:13.455Z,5.10
2022-12-06T11:20:13.450Z,5.10
2022-12-06T11:21:13.417Z,5.12
2022-12-06T11:22:13.418Z,5.09
2022-12-06T11:23:13.387Z,5.10
2022-12-06T11:24:13.387Z,5.10
2022-12-06T11:25:13.388Z,5.09
2022-12-06T11:26:13.351Z,5.09
2022-12-06T11:27:13.344Z,5.09
2022-12-06T11:28:13.367Z,5.09
2022-12-06T11:29:13.333Z,5.10
2022-12-06T11:30:16.897Z,5.10
2022-12-06T11:31:13.331Z,5.10
2022-12-06T11:32:13.314Z,5.07
2022-12-06T11:33:13.278Z,5.09
2022-12-06T11:34:13.273Z,5.09
2022-12-06T11:35:13.257Z,5.07
2022-12-06T11:36:13.242Z,5.09
2022-12-06T11:37:13.222Z,5.09
2022-12-06T11:38:13.219Z,5.09
2022-12-06T11:39:13.248Z,5.09
2022-12-06T11:40:13.192Z,5.09
2022-12-06T11:41:13.188Z,5.10
2022-12-06T11:42:13.177Z,5.10
2022-12-06T11:43:13.181Z,5.13
2022-12-06T11:44:13.185Z,5.12
2022-12-06T11:45:13.138Z,5.13
2022-12-06T11:46:13.211Z,5.12
2022-12-06T11:47:13.185Z,5.12
2022-12-06T11:48:13.107Z,5.12
2022-12-06T11:49:13.121Z,5.10
2022-12-06T11:50:16.888Z,5.09
2022-12-06T11:51:13.093Z,5.05
2022-12-06T11:52:13.071Z,5.05
2022-12-06T11:53:13.063Z,5.07
2022-12-06T11:54:13.087Z,5.07
2022-12-06T11:55:13.026Z,5.10
2022-12-06T11:56:13.064Z,5.07
2022-12-06T11:57:15.688Z,5.09
2022-12-06T11:58:13.001Z,5.09
2022-12-06T11:59:13.042Z,5.10
2022-12-06T12:00:12.985Z,5.10
2022-12-06T12:01:12.966Z,5.12
2022-12-06T12:02:18.052Z,5.10
2022-12-06T12:03:12.977Z,5.10
2022-12-06T12:04:12.945Z,5.10
2022-12-06T12:05:12.965Z,5.10
2022-12-06T12:06:12.921Z,5.10
2022-12-06T12:07:12.924Z,5.09
2022-12-06T12:08:12.927Z,5.10
2022-12-06T12:09:12.905Z,5.09
2022-12-06T12:10:12.869Z,5.10
2022-12-06T12:11:12.874Z,5.12
2022-12-06T12:12:12.884Z,5.12
2022-12-06T12:13:12.847Z,5.12
2022-12-06T12:14:12.858Z,5.10
2022-12-06T12:15:12.818Z,5.09
2022-12-06T12:16:12.860Z,5.07
2022-12-06T12:17:12.797Z,5.07
2022-12-06T12:18:12.775Z,5.07
2022-12-06T12:19:12.786Z,5.05
2022-12-06T12:20:12.763Z,5.04
2022-12-06T12:21:12.762Z,5.02
2022-12-06T12:22:12.752Z,5.02
2022-12-06T12:23:12.733Z,5.01
2022-12-06T12:24:12.741Z,4.99
2022-12-06T12:25:20.365Z,4.96
2022-12-06T12:26:12.701Z,4.94
2022-12-06T12:27:18.138Z,4.95
2022-12-06T12:28:12.685Z,4.94
2022-12-06T12:29:12.682Z,4.94
2022-12-06T12:30:12.672Z,4.94
2022-12-06T12:31:12.649Z,4.94
2022-12-06T12:32:12.763Z,4.94
2022-12-06T12:33:12.620Z,4.94
2022-12-06T12:34:12.626Z,4.94
2022-12-06T12:35:12.622Z,4.92
2022-12-06T12:36:12.592Z,4.91
2022-12-06T12:37:12.594Z,4.92
2022-12-06T12:38:12.562Z,4.92
2022-12-06T12:39:12.571Z,4.92
2022-12-06T12:40:12.559Z,4.92
2022-12-06T12:41:12.547Z,4.88
2022-12-06T12:42:12.521Z,4.84
2022-12-06T12:43:12.518Z,4.80
2022-12-06T12:45:12.497Z,4.80
2022-12-06T12:46:12.529Z,4.80
2022-12-06T12:47:12.466Z,4.77
2022-12-06T12:48:12.464Z,4.75
2022-12-06T12:49:12.474Z,4.76
2022-12-06T12:50:12.436Z,4.76
2022-12-06T12:51:12.426Z,4.75
2022-12-06T12:52:12.433Z,4.77
2022-12-06T12:53:12.407Z,4.76
2022-12-06T12:54:12.404Z,4.76
2022-12-06T12:55:12.397Z,4.76
2022-12-06T12:56:12.376Z,4.76
2022-12-06T12:57:12.359Z,4.75
2022-12-06T12:58:12.363Z,4.75
2022-12-06T12:59:12.351Z,4.76
2022-12-06T13:00:12.326Z,4.77
2022-12-06T13:01:12.401Z,4.75
2022-12-06T13:02:12.356Z,4.73
2022-12-06T13:03:35.006Z,4.73
2022-12-06T13:04:12.324Z,4.75
2022-12-06T13:05:32.117Z,4.75
2022-12-06T13:06:12.281Z,4.73
2022-12-06T13:07:12.257Z,4.72
2022-12-06T13:08:12.296Z,4.72
2022-12-06T13:09:12.248Z,4.73
2022-12-06T13:10:12.278Z,4.72
2022-12-06T13:11:12.214Z,4.72
2022-12-06T13:12:12.206Z,4.70
2022-12-06T13:13:12.195Z,4.67
2022-12-06T13:14:12.242Z,4.67
2022-12-06T13:15:12.196Z,4.65
2022-12-06T13:16:12.208Z,4.67
2022-12-06T13:17:12.266Z,4.65
2022-12-06T13:18:12.127Z,4.67
2022-12-06T13:19:12.144Z,4.64